sensor_id;sensor_type;location;lat;lon;timestamp;P1;durP1;ratioP1;P2;durP2;ratioP2
76593;SDS011;65482;50.240;14.302;2024-03-25T00:00:28;2.67;;;1.90;;
76593;SDS011;65482;50.240;14.302;2024-03-25T00:03:14;2.53;;;1.60;;
76593;SDS011;65482;50.240;14.302;2024-03-25T00:05:40;4.47;;;2.10;;
76593;SDS011;65482;50.240;14.302;2024-03-25T00:08:05;4.25;;;2.03;;
76593;SDS011;65482;50.240;14.302;2024-03-25T00:10:32;4.90;;;2.30;;
76593;SDS011;65482;50.240;14.302;2024-03-25T00:12:59;2.97;;;2.13;;
76593;SDS011;65482;50.240;14.302;2024-03-25T00:15:25;3.33;;;2.22;;
76593;SDS011;65482;50.240;14.302;2024-03-25T00:17:51;2.47;;;1.70;;
76593;SDS011;65482;50.240;14.302;2024-03-25T00:20:17;3.60;;;1.70;;
76593;SDS011;65482;50.240;14.302;2024-03-25T00:22:43;2.58;;;1.80;;
76593;SDS011;65482;50.240;14.302;2024-03-25T00:25:08;2.35;;;1.73;;
76593;SDS011;65482;50.240;14.302;2024-03-25T00:27:34;3.58;;;2.28;;
76593;SDS011;65482;50.240;14.302;2024-03-25T00:30:00;4.53;;;2.15;;
76593;SDS011;65482;50.240;14.302;2024-03-25T00:32:26;4.75;;;2.08;;
76593;SDS011;65482;50.240;14.302;2024-03-25T00:34:51;3.72;;;2.00;;
76593;SDS011;65482;50.240;14.302;2024-03-25T00:37:17;3.92;;;2.20;;
76593;SDS011;65482;50.240;14.302;2024-03-25T00:39:44;2.38;;;1.92;;
76593;SDS011;65482;50.240;14.302;2024-03-25T00:42:10;3.80;;;2.00;;
76593;SDS011;65482;50.240;14.302;2024-03-25T00:44:36;4.20;;;2.38;;
76593;SDS011;65482;50.240;14.302;2024-03-25T00:47:01;4.93;;;2.10;;
76593;SDS011;65482;50.240;14.302;2024-03-25T00:49:27;4.25;;;1.90;;
76593;SDS011;65482;50.240;14.302;2024-03-25T00:51:53;4.13;;;2.22;;
76593;SDS011;65482;50.240;14.302;2024-03-25T00:54:19;3.53;;;2.20;;
76593;SDS011;65482;50.240;14.302;2024-03-25T00:56:44;3.92;;;2.38;;
76593;SDS011;65482;50.240;14.302;2024-03-25T00:59:12;3.35;;;2.30;;
76593;SDS011;65482;50.240;14.302;2024-03-25T01:01:37;4.53;;;2.30;;
76593;SDS011;65482;50.240;14.302;2024-03-25T01:04:03;3.90;;;2.28;;
76593;SDS011;65482;50.240;14.302;2024-03-25T01:06:29;4.85;;;2.30;;
76593;SDS011;65482;50.240;14.302;2024-03-25T01:08:55;5.07;;;2.40;;
76593;SDS011;65482;50.240;14.302;2024-03-25T01:11:21;3.92;;;2.33;;
76593;SDS011;65482;50.240;14.302;2024-03-25T01:13:47;3.22;;;2.15;;
76593;SDS011;65482;50.240;14.302;2024-03-25T01:16:13;3.50;;;2.22;;
76593;SDS011;65482;50.240;14.302;2024-03-25T01:18:39;3.17;;;2.33;;
76593;SDS011;65482;50.240;14.302;2024-03-25T01:21:04;3.63;;;2.30;;
76593;SDS011;65482;50.240;14.302;2024-03-25T01:23:30;3.97;;;2.22;;
76593;SDS011;65482;50.240;14.302;2024-03-25T01:25:56;4.72;;;2.30;;
76593;SDS011;65482;50.240;14.302;2024-03-25T01:28:22;4.50;;;2.40;;
76593;SDS011;65482;50.240;14.302;2024-03-25T01:30:47;7.03;;;2.55;;
76593;SDS011;65482;50.240;14.302;2024-03-25T01:33:14;3.50;;;2.40;;
76593;SDS011;65482;50.240;14.302;2024-03-25T01:35:40;3.65;;;2.40;;
76593;SDS011;65482;50.240;14.302;2024-03-25T01:38:06;4.25;;;2.63;;
76593;SDS011;65482;50.240;14.302;2024-03-25T01:40:31;5.00;;;2.45;;
76593;SDS011;65482;50.240;14.302;2024-03-25T01:43:01;4.43;;;2.33;;
76593;SDS011;65482;50.240;14.302;2024-03-25T01:45:29;3.67;;;2.30;;
76593;SDS011;65482;50.240;14.302;2024-03-25T01:47:59;3.50;;;2.10;;
76593;SDS011;65482;50.240;14.302;2024-03-25T01:50:27;4.03;;;2.65;;
76593;SDS011;65482;50.240;14.302;2024-03-25T01:52:54;4.00;;;2.35;;
76593;SDS011;65482;50.240;14.302;2024-03-25T01:55:21;3.55;;;2.38;;
76593;SDS011;65482;50.240;14.302;2024-03-25T01:57:50;4.90;;;2.63;;
76593;SDS011;65482;50.240;14.302;2024-03-25T02:00:17;3.47;;;2.30;;
76593;SDS011;65482;50.240;14.302;2024-03-25T02:02:44;3.58;;;2.50;;
76593;SDS011;65482;50.240;14.302;2024-03-25T02:05:11;4.38;;;2.42;;
76593;SDS011;65482;50.240;14.302;2024-03-25T02:07:37;3.85;;;2.15;;
76593;SDS011;65482;50.240;14.302;2024-03-25T02:10:04;5.07;;;2.25;;
76593;SDS011;65482;50.240;14.302;2024-03-25T02:12:31;3.50;;;2.20;;
76593;SDS011;65482;50.240;14.302;2024-03-25T02:14:57;5.22;;;2.55;;
76593;SDS011;65482;50.240;14.302;2024-03-25T02:17:23;5.50;;;2.58;;
76593;SDS011;65482;50.240;14.302;2024-03-25T02:19:49;3.03;;;1.98;;
76593;SDS011;65482;50.240;14.302;2024-03-25T02:22:15;3.40;;;2.35;;
76593;SDS011;65482;50.240;14.302;2024-03-25T02:24:41;4.72;;;2.13;;
76593;SDS011;65482;50.240;14.302;2024-03-25T02:27:10;4.28;;;2.10;;
76593;SDS011;65482;50.240;14.302;2024-03-25T02:29:39;4.35;;;2.25;;
76593;SDS011;65482;50.240;14.302;2024-03-25T02:32:06;3.10;;;2.00;;
76593;SDS011;65482;50.240;14.302;2024-03-25T02:34:45;3.13;;;2.15;;
76593;SDS011;65482;50.240;14.302;2024-03-25T02:37:13;2.83;;;2.00;;
76593;SDS011;65482;50.240;14.302;2024-03-25T02:39:39;3.88;;;1.90;;
76593;SDS011;65482;50.240;14.302;2024-03-25T02:42:05;4.10;;;2.13;;
76593;SDS011;65482;50.240;14.302;2024-03-25T02:44:30;3.75;;;1.95;;
76593;SDS011;65482;50.240;14.302;2024-03-25T02:46:57;3.90;;;2.05;;
76593;SDS011;65482;50.240;14.302;2024-03-25T02:49:23;4.10;;;2.10;;
76593;SDS011;65482;50.240;14.302;2024-03-25T02:51:49;4.03;;;2.00;;
76593;SDS011;65482;50.240;14.302;2024-03-25T02:54:14;3.92;;;1.77;;
76593;SDS011;65482;50.240;14.302;2024-03-25T02:56:40;2.42;;;2.00;;
76593;SDS011;65482;50.240;14.302;2024-03-25T02:59:06;2.00;;;1.65;;
76593;SDS011;65482;50.240;14.302;2024-03-25T03:01:32;2.38;;;1.80;;
76593;SDS011;65482;50.240;14.302;2024-03-25T03:03:57;3.30;;;1.75;;
76593;SDS011;65482;50.240;14.302;2024-03-25T03:06:23;3.17;;;1.50;;
76593;SDS011;65482;50.240;14.302;2024-03-25T03:08:49;4.50;;;1.70;;
76593;SDS011;65482;50.240;14.302;2024-03-25T03:11:14;3.60;;;1.90;;
76593;SDS011;65482;50.240;14.302;2024-03-25T03:13:40;2.72;;;1.80;;
76593;SDS011;65482;50.240;14.302;2024-03-25T03:16:06;2.58;;;1.40;;
76593;SDS011;65482;50.240;14.302;2024-03-25T03:18:31;2.53;;;1.40;;
76593;SDS011;65482;50.240;14.302;2024-03-25T03:20:57;2.45;;;1.50;;
76593;SDS011;65482;50.240;14.302;2024-03-25T03:23:22;3.28;;;1.52;;
76593;SDS011;65482;50.240;14.302;2024-03-25T03:25:48;4.05;;;1.40;;
76593;SDS011;65482;50.240;14.302;2024-03-25T03:28:14;2.63;;;1.48;;
76593;SDS011;65482;50.240;14.302;2024-03-25T03:30:41;1.83;;;1.48;;
76593;SDS011;65482;50.240;14.302;2024-03-25T03:33:07;2.35;;;1.50;;
76593;SDS011;65482;50.240;14.302;2024-03-25T03:35:33;1.65;;;1.30;;
76593;SDS011;65482;50.240;14.302;2024-03-25T03:37:59;2.25;;;1.50;;
76593;SDS011;65482;50.240;14.302;2024-03-25T03:40:24;3.45;;;1.60;;
76593;SDS011;65482;50.240;14.302;2024-03-25T03:42:50;1.92;;;1.33;;
76593;SDS011;65482;50.240;14.302;2024-03-25T03:45:15;2.63;;;1.30;;
76593;SDS011;65482;50.240;14.302;2024-03-25T03:47:41;2.42;;;1.48;;
76593;SDS011;65482;50.240;14.302;2024-03-25T03:50:07;1.77;;;1.40;;
76593;SDS011;65482;50.240;14.302;2024-03-25T03:52:32;2.63;;;1.60;;
76593;SDS011;65482;50.240;14.302;2024-03-25T03:54:58;2.78;;;1.70;;
76593;SDS011;65482;50.240;14.302;2024-03-25T03:57:25;2.72;;;1.40;;
76593;SDS011;65482;50.240;14.302;2024-03-25T03:59:51;2.08;;;1.20;;
76593;SDS011;65482;50.240;14.302;2024-03-25T04:02:17;3.58;;;1.75;;
76593;SDS011;65482;50.240;14.302;2024-03-25T04:04:43;2.60;;;1.55;;
76593;SDS011;65482;50.240;14.302;2024-03-25T04:07:09;2.92;;;1.45;;
76593;SDS011;65482;50.240;14.302;2024-03-25T04:09:35;1.98;;;1.45;;
76593;SDS011;65482;50.240;14.302;2024-03-25T04:12:00;2.55;;;1.40;;
76593;SDS011;65482;50.240;14.302;2024-03-25T04:14:26;2.25;;;1.40;;
76593;SDS011;65482;50.240;14.302;2024-03-25T04:16:52;2.13;;;1.45;;
76593;SDS011;65482;50.240;14.302;2024-03-25T04:19:19;2.97;;;1.83;;
76593;SDS011;65482;50.240;14.302;2024-03-25T04:21:45;2.25;;;1.55;;
76593;SDS011;65482;50.240;14.302;2024-03-25T04:24:11;4.70;;;1.75;;
76593;SDS011;65482;50.240;14.302;2024-03-25T04:26:37;2.67;;;1.50;;
76593;SDS011;65482;50.240;14.302;2024-03-25T04:29:03;2.97;;;1.50;;
76593;SDS011;65482;50.240;14.302;2024-03-25T04:31:29;2.65;;;1.60;;
76593;SDS011;65482;50.240;14.302;2024-03-25T04:33:55;2.15;;;1.70;;
76593;SDS011;65482;50.240;14.302;2024-03-25T04:36:20;2.05;;;1.60;;
76593;SDS011;65482;50.240;14.302;2024-03-25T04:38:46;2.35;;;1.60;;
76593;SDS011;65482;50.240;14.302;2024-03-25T04:41:12;3.75;;;1.70;;
76593;SDS011;65482;50.240;14.302;2024-03-25T04:43:38;2.53;;;1.50;;
76593;SDS011;65482;50.240;14.302;2024-03-25T04:46:04;2.20;;;1.20;;
76593;SDS011;65482;50.240;14.302;2024-03-25T04:48:30;1.50;;;1.20;;
76593;SDS011;65482;50.240;14.302;2024-03-25T04:50:56;2.30;;;1.60;;
76593;SDS011;65482;50.240;14.302;2024-03-25T04:53:22;2.28;;;1.33;;
76593;SDS011;65482;50.240;14.302;2024-03-25T04:55:47;1.70;;;1.13;;
76593;SDS011;65482;50.240;14.302;2024-03-25T04:58:13;3.28;;;1.08;;
76593;SDS011;65482;50.240;14.302;2024-03-25T05:00:38;2.55;;;1.40;;
76593;SDS011;65482;50.240;14.302;2024-03-25T05:03:05;2.05;;;1.20;;
76593;SDS011;65482;50.240;14.302;2024-03-25T05:05:30;4.72;;;1.25;;
76593;SDS011;65482;50.240;14.302;2024-03-25T05:07:56;1.67;;;0.98;;
76593;SDS011;65482;50.240;14.302;2024-03-25T05:10:22;2.63;;;1.23;;
76593;SDS011;65482;50.240;14.302;2024-03-25T05:12:47;2.47;;;1.30;;
76593;SDS011;65482;50.240;14.302;2024-03-25T05:15:14;1.38;;;1.13;;
76593;SDS011;65482;50.240;14.302;2024-03-25T05:17:41;1.70;;;1.00;;
76593;SDS011;65482;50.240;14.302;2024-03-25T05:20:06;2.08;;;1.35;;
76593;SDS011;65482;50.240;14.302;2024-03-25T05:22:32;2.83;;;1.52;;
76593;SDS011;65482;50.240;14.302;2024-03-25T05:24:58;1.73;;;1.20;;
76593;SDS011;65482;50.240;14.302;2024-03-25T05:27:23;3.25;;;1.60;;
76593;SDS011;65482;50.240;14.302;2024-03-25T05:29:49;1.70;;;1.30;;
76593;SDS011;65482;50.240;14.302;2024-03-25T05:32:15;2.75;;;1.30;;
76593;SDS011;65482;50.240;14.302;2024-03-25T05:34:42;1.67;;;1.20;;
76593;SDS011;65482;50.240;14.302;2024-03-25T05:37:09;1.88;;;1.40;;
76593;SDS011;65482;50.240;14.302;2024-03-25T05:39:35;1.98;;;1.38;;
76593;SDS011;65482;50.240;14.302;2024-03-25T05:42:00;3.20;;;1.33;;
76593;SDS011;65482;50.240;14.302;2024-03-25T05:44:26;3.15;;;1.60;;
76593;SDS011;65482;50.240;14.302;2024-03-25T05:46:51;1.75;;;1.40;;
76593;SDS011;65482;50.240;14.302;2024-03-25T05:49:17;2.10;;;1.60;;
76593;SDS011;65482;50.240;14.302;2024-03-25T05:51:43;2.67;;;1.50;;
76593;SDS011;65482;50.240;14.302;2024-03-25T05:54:08;5.63;;;1.58;;
76593;SDS011;65482;50.240;14.302;2024-03-25T05:56:34;2.45;;;1.40;;
76593;SDS011;65482;50.240;14.302;2024-03-25T05:58:59;2.53;;;1.65;;
76593;SDS011;65482;50.240;14.302;2024-03-25T06:01:26;4.65;;;1.60;;
76593;SDS011;65482;50.240;14.302;2024-03-25T06:03:52;3.30;;;1.42;;
76593;SDS011;65482;50.240;14.302;2024-03-25T06:06:18;7.85;;;1.83;;
76593;SDS011;65482;50.240;14.302;2024-03-25T06:08:44;4.22;;;1.85;;
76593;SDS011;65482;50.240;14.302;2024-03-25T06:11:10;3.05;;;2.08;;
76593;SDS011;65482;50.240;14.302;2024-03-25T06:13:35;2.22;;;1.40;;
76593;SDS011;65482;50.240;14.302;2024-03-25T06:16:01;3.13;;;1.50;;
76593;SDS011;65482;50.240;14.302;2024-03-25T06:18:27;3.25;;;1.42;;
76593;SDS011;65482;50.240;14.302;2024-03-25T06:20:56;3.25;;;1.23;;
76593;SDS011;65482;50.240;14.302;2024-03-25T06:23:23;2.95;;;1.40;;
76593;SDS011;65482;50.240;14.302;2024-03-25T06:33:30;1.90;;;1.40;;
76593;SDS011;65482;50.240;14.302;2024-03-25T06:36:28;2.83;;;1.50;;
76593;SDS011;65482;50.240;14.302;2024-03-25T06:39:27;6.38;;;1.77;;
76593;SDS011;65482;50.240;14.302;2024-03-25T07:07:54;2.97;;;1.65;;
76593;SDS011;65482;50.240;14.302;2024-03-25T07:10:33;3.50;;;1.85;;
76593;SDS011;65482;50.240;14.302;2024-03-25T07:13:05;4.40;;;2.00;;
76593;SDS011;65482;50.240;14.302;2024-03-25T07:16:05;2.88;;;1.77;;
76593;SDS011;65482;50.240;14.302;2024-03-25T07:22:39;2.55;;;1.65;;
76593;SDS011;65482;50.240;14.302;2024-03-25T07:46:44;2.50;;;1.30;;
76593;SDS011;65482;50.240;14.302;2024-03-25T09:00:14;4.55;;;2.42;;
76593;SDS011;65482;50.240;14.302;2024-03-25T09:03:06;3.90;;;2.13;;
76593;SDS011;65482;50.240;14.302;2024-03-25T09:05:40;5.32;;;2.42;;
76593;SDS011;65482;50.240;14.302;2024-03-25T09:08:10;3.13;;;2.20;;
76593;SDS011;65482;50.240;14.302;2024-03-25T09:10:43;2.67;;;2.08;;
76593;SDS011;65482;50.240;14.302;2024-03-25T09:13:33;6.03;;;2.95;;
76593;SDS011;65482;50.240;14.302;2024-03-25T09:15:58;4.53;;;2.53;;
76593;SDS011;65482;50.240;14.302;2024-03-25T09:18:24;2.33;;;1.83;;
76593;SDS011;65482;50.240;14.302;2024-03-25T09:20:50;4.65;;;2.30;;
76593;SDS011;65482;50.240;14.302;2024-03-25T09:23:16;3.75;;;1.85;;
76593;SDS011;65482;50.240;14.302;2024-03-25T09:25:52;5.10;;;2.08;;
76593;SDS011;65482;50.240;14.302;2024-03-25T09:28:19;3.17;;;1.73;;
76593;SDS011;65482;50.240;14.302;2024-03-25T09:30:45;2.05;;;1.48;;
76593;SDS011;65482;50.240;14.302;2024-03-25T09:33:14;2.70;;;1.50;;
76593;SDS011;65482;50.240;14.302;2024-03-25T09:35:40;3.00;;;1.20;;
76593;SDS011;65482;50.240;14.302;2024-03-25T09:38:06;0.80;;;0.80;;
76593;SDS011;65482;50.240;14.302;2024-03-25T09:40:33;3.25;;;1.33;;
76593;SDS011;65482;50.240;14.302;2024-03-25T09:43:06;2.78;;;1.00;;
76593;SDS011;65482;50.240;14.302;2024-03-25T09:45:42;3.55;;;1.10;;
76593;SDS011;65482;50.240;14.302;2024-03-25T09:48:14;2.60;;;1.60;;
76593;SDS011;65482;50.240;14.302;2024-03-25T09:50:42;2.92;;;1.50;;
76593;SDS011;65482;50.240;14.302;2024-03-25T09:53:30;4.05;;;1.40;;
76593;SDS011;65482;50.240;14.302;2024-03-25T09:55:56;2.97;;;1.45;;
76593;SDS011;65482;50.240;14.302;2024-03-25T09:58:25;5.63;;;1.33;;
76593;SDS011;65482;50.240;14.302;2024-03-25T10:00:51;2.22;;;1.35;;
76593;SDS011;65482;50.240;14.302;2024-03-25T10:03:17;3.40;;;1.42;;
76593;SDS011;65482;50.240;14.302;2024-03-25T10:05:43;4.32;;;1.38;;
76593;SDS011;65482;50.240;14.302;2024-03-25T10:08:08;3.33;;;1.33;;
76593;SDS011;65482;50.240;14.302;2024-03-25T10:10:35;4.50;;;1.55;;
76593;SDS011;65482;50.240;14.302;2024-03-25T10:13:04;2.13;;;1.30;;
76593;SDS011;65482;50.240;14.302;2024-03-25T10:15:31;4.22;;;1.70;;
76593;SDS011;65482;50.240;14.302;2024-03-25T10:17:58;3.38;;;1.77;;
76593;SDS011;65482;50.240;14.302;2024-03-25T10:20:24;2.47;;;1.20;;
76593;SDS011;65482;50.240;14.302;2024-03-25T10:22:50;3.28;;;1.30;;
76593;SDS011;65482;50.240;14.302;2024-03-25T10:25:23;2.58;;;1.40;;
76593;SDS011;65482;50.240;14.302;2024-03-25T10:27:58;3.05;;;1.20;;
76593;SDS011;65482;50.240;14.302;2024-03-25T10:30:25;2.60;;;1.20;;
76593;SDS011;65482;50.240;14.302;2024-03-25T10:32:58;3.15;;;1.33;;
76593;SDS011;65482;50.240;14.302;2024-03-25T10:35:25;2.63;;;1.30;;
76593;SDS011;65482;50.240;14.302;2024-03-25T10:37:53;2.40;;;1.20;;
76593;SDS011;65482;50.240;14.302;2024-03-25T10:40:23;4.95;;;1.52;;
76593;SDS011;65482;50.240;14.302;2024-03-25T10:42:55;3.53;;;1.33;;
76593;SDS011;65482;50.240;14.302;2024-03-25T10:45:51;2.95;;;1.40;;
76593;SDS011;65482;50.240;14.302;2024-03-25T12:35:52;3.55;;;2.05;;
76593;SDS011;65482;50.240;14.302;2024-03-25T12:42:51;5.63;;;2.60;;
76593;SDS011;65482;50.240;14.302;2024-03-25T12:45:38;5.28;;;2.20;;
76593;SDS011;65482;50.240;14.302;2024-03-25T12:48:30;3.10;;;1.98;;
76593;SDS011;65482;50.240;14.302;2024-03-25T12:51:25;2.95;;;2.08;;
76593;SDS011;65482;50.240;14.302;2024-03-25T12:54:23;10.07;;;2.40;;
76593;SDS011;65482;50.240;14.302;2024-03-25T12:57:03;3.70;;;1.70;;
76593;SDS011;65482;50.240;14.302;2024-03-25T12:59:29;3.92;;;2.05;;
76593;SDS011;65482;50.240;14.302;2024-03-25T13:02:03;3.88;;;1.77;;
76593;SDS011;65482;50.240;14.302;2024-03-25T13:05:03;4.32;;;1.90;;
76593;SDS011;65482;50.240;14.302;2024-03-25T13:08:05;5.07;;;2.00;;
76593;SDS011;65482;50.240;14.302;2024-03-25T13:10:49;2.60;;;1.88;;
76593;SDS011;65482;50.240;14.302;2024-03-25T13:13:31;2.75;;;2.03;;
76593;SDS011;65482;50.240;14.302;2024-03-25T13:16:11;5.82;;;2.10;;
76593;SDS011;65482;50.240;14.302;2024-03-25T13:18:58;6.20;;;2.42;;
76593;SDS011;65482;50.240;14.302;2024-03-25T13:21:42;6.55;;;2.40;;
76593;SDS011;65482;50.240;14.302;2024-03-25T13:28:20;5.72;;;2.25;;
76593;SDS011;65482;50.240;14.302;2024-03-25T13:30:49;7.57;;;2.95;;
76593;SDS011;65482;50.240;14.302;2024-03-25T13:33:37;5.90;;;2.72;;
76593;SDS011;65482;50.240;14.302;2024-03-25T13:36:23;6.45;;;2.25;;
76593;SDS011;65482;50.240;14.302;2024-03-25T13:39:15;3.95;;;2.08;;
76593;SDS011;65482;50.240;14.302;2024-03-25T13:42:10;8.73;;;2.42;;
76593;SDS011;65482;50.240;14.302;2024-03-25T13:45:07;6.65;;;2.40;;
76593;SDS011;65482;50.240;14.302;2024-03-25T13:48:09;5.20;;;2.20;;
76593;SDS011;65482;50.240;14.302;2024-03-25T13:54:05;3.53;;;1.90;;
76593;SDS011;65482;50.240;14.302;2024-03-25T13:56:36;6.15;;;1.95;;
76593;SDS011;65482;50.240;14.302;2024-03-25T13:59:18;3.22;;;1.83;;
76593;SDS011;65482;50.240;14.302;2024-03-25T14:01:59;3.53;;;1.85;;
76593;SDS011;65482;50.240;14.302;2024-03-25T14:04:46;2.33;;;1.48;;
76593;SDS011;65482;50.240;14.302;2024-03-25T14:07:35;5.53;;;1.70;;
76593;SDS011;65482;50.240;14.302;2024-03-25T14:10:34;3.22;;;1.60;;
76593;SDS011;65482;50.240;14.302;2024-03-25T14:17:12;2.72;;;1.65;;
76593;SDS011;65482;50.240;14.302;2024-03-25T14:20:49;2.35;;;1.30;;
76593;SDS011;65482;50.240;14.302;2024-03-25T14:23:33;5.47;;;2.10;;
76593;SDS011;65482;50.240;14.302;2024-03-25T14:34:06;2.38;;;1.45;;
76593;SDS011;65482;50.240;14.302;2024-03-25T14:40:13;2.72;;;1.45;;
76593;SDS011;65482;50.240;14.302;2024-03-25T14:43:07;8.52;;;2.00;;
76593;SDS011;65482;50.240;14.302;2024-03-25T14:46:05;5.43;;;1.98;;
76593;SDS011;65482;50.240;14.302;2024-03-25T14:56:31;5.28;;;2.50;;
76593;SDS011;65482;50.240;14.302;2024-03-25T14:59:22;6.78;;;2.53;;
76593;SDS011;65482;50.240;14.302;2024-03-25T15:02:08;5.97;;;3.00;;
76593;SDS011;65482;50.240;14.302;2024-03-25T15:04:57;5.72;;;2.65;;
76593;SDS011;65482;50.240;14.302;2024-03-25T15:08:10;4.85;;;2.08;;
76593;SDS011;65482;50.240;14.302;2024-03-25T15:11:14;1.98;;;1.70;;
76593;SDS011;65482;50.240;14.302;2024-03-25T15:21:46;3.05;;;1.30;;
76593;SDS011;65482;50.240;14.302;2024-03-25T15:25:17;3.30;;;2.40;;
76593;SDS011;65482;50.240;14.302;2024-03-25T15:32:29;5.28;;;2.40;;
76593;SDS011;65482;50.240;14.302;2024-03-25T15:35:33;3.08;;;1.73;;
76593;SDS011;65482;50.240;14.302;2024-03-25T15:39:04;5.55;;;2.00;;
76593;SDS011;65482;50.240;14.302;2024-03-25T15:41:28;8.80;;;2.63;;
76593;SDS011;65482;50.240;14.302;2024-03-25T15:44:57;3.97;;;1.67;;
76593;SDS011;65482;50.240;14.302;2024-03-25T15:47:39;5.35;;;1.85;;
76593;SDS011;65482;50.240;14.302;2024-03-25T15:50:17;6.50;;;1.80;;
76593;SDS011;65482;50.240;14.302;2024-03-25T15:52:56;3.75;;;1.80;;
76593;SDS011;65482;50.240;14.302;2024-03-25T15:55:21;5.28;;;2.20;;
76593;SDS011;65482;50.240;14.302;2024-03-25T15:57:54;7.13;;;2.83;;
76593;SDS011;65482;50.240;14.302;2024-03-25T16:00:29;4.38;;;2.00;;
76593;SDS011;65482;50.240;14.302;2024-03-25T16:03:15;2.08;;;1.50;;
76593;SDS011;65482;50.240;14.302;2024-03-25T16:06:11;4.07;;;1.58;;
76593;SDS011;65482;50.240;14.302;2024-03-25T16:09:32;2.20;;;1.42;;
76593;SDS011;65482;50.240;14.302;2024-03-25T16:12:26;1.67;;;1.10;;
76593;SDS011;65482;50.240;14.302;2024-03-25T16:15:33;2.00;;;1.30;;
76593;SDS011;65482;50.240;14.302;2024-03-25T16:18:29;2.05;;;1.40;;
76593;SDS011;65482;50.240;14.302;2024-03-25T16:21:41;1.83;;;1.30;;
76593;SDS011;65482;50.240;14.302;2024-03-25T16:24:19;4.60;;;1.70;;
76593;SDS011;65482;50.240;14.302;2024-03-25T16:27:33;1.70;;;1.42;;
76593;SDS011;65482;50.240;14.302;2024-03-25T16:30:16;2.22;;;1.50;;
76593;SDS011;65482;50.240;14.302;2024-03-25T16:32:53;1.80;;;1.20;;
76593;SDS011;65482;50.240;14.302;2024-03-25T16:35:27;2.65;;;1.45;;
76593;SDS011;65482;50.240;14.302;2024-03-25T16:38:08;1.83;;;1.20;;
76593;SDS011;65482;50.240;14.302;2024-03-25T16:48:08;7.53;;;2.22;;
76593;SDS011;65482;50.240;14.302;2024-03-25T16:50:45;5.25;;;2.72;;
76593;SDS011;65482;50.240;14.302;2024-03-25T16:57:09;4.30;;;2.75;;
76593;SDS011;65482;50.240;14.302;2024-03-25T17:00:05;6.93;;;3.20;;
76593;SDS011;65482;50.240;14.302;2024-03-25T17:07:01;6.43;;;3.25;;
76593;SDS011;65482;50.240;14.302;2024-03-25T17:10:02;6.07;;;3.55;;
76593;SDS011;65482;50.240;14.302;2024-03-25T17:13:42;5.85;;;3.00;;
76593;SDS011;65482;50.240;14.302;2024-03-25T17:17:03;7.78;;;2.40;;
76593;SDS011;65482;50.240;14.302;2024-03-25T17:20:10;5.40;;;2.20;;
76593;SDS011;65482;50.240;14.302;2024-03-25T17:26:48;16.95;;;9.05;;
76593;SDS011;65482;50.240;14.302;2024-03-25T17:30:10;30.45;;;14.55;;
76593;SDS011;65482;50.240;14.302;2024-03-25T17:37:34;28.92;;;14.57;;
76593;SDS011;65482;50.240;14.302;2024-03-25T17:40:28;36.25;;;18.13;;
76593;SDS011;65482;50.240;14.302;2024-03-25T17:43:28;40.15;;;18.25;;
76593;SDS011;65482;50.240;14.302;2024-03-25T17:50:15;47.42;;;20.38;;
76593;SDS011;65482;50.240;14.302;2024-03-25T17:53:01;45.72;;;21.77;;
76593;SDS011;65482;50.240;14.302;2024-03-25T17:55:59;47.08;;;19.55;;
76593;SDS011;65482;50.240;14.302;2024-03-25T18:02:17;47.35;;;20.08;;
76593;SDS011;65482;50.240;14.302;2024-03-25T18:05:12;44.10;;;18.80;;
76593;SDS011;65482;50.240;14.302;2024-03-25T18:11:28;34.25;;;13.73;;
76593;SDS011;65482;50.240;14.302;2024-03-25T18:21:35;83.53;;;31.77;;
76593;SDS011;65482;50.240;14.302;2024-03-25T18:28:35;53.50;;;16.15;;
76593;SDS011;65482;50.240;14.302;2024-03-25T18:31:56;48.03;;;18.60;;
76593;SDS011;65482;50.240;14.302;2024-03-25T18:35:12;47.00;;;17.50;;
76593;SDS011;65482;50.240;14.302;2024-03-25T18:38:20;44.63;;;17.65;;
76593;SDS011;65482;50.240;14.302;2024-03-25T18:41:32;43.65;;;17.65;;
76593;SDS011;65482;50.240;14.302;2024-03-25T18:44:37;54.80;;;19.95;;
76593;SDS011;65482;50.240;14.302;2024-03-25T18:47:58;50.00;;;20.15;;
76593;SDS011;65482;50.240;14.302;2024-03-25T18:54:16;58.75;;;23.08;;
76593;SDS011;65482;50.240;14.302;2024-03-25T18:56:59;66.30;;;23.33;;
76593;SDS011;65482;50.240;14.302;2024-03-25T18:59:50;72.10;;;26.70;;
76593;SDS011;65482;50.240;14.302;2024-03-25T19:02:51;74.68;;;27.10;;
76593;SDS011;65482;50.240;14.302;2024-03-25T19:05:39;52.75;;;19.17;;
76593;SDS011;65482;50.240;14.302;2024-03-25T19:08:37;36.83;;;15.75;;
76593;SDS011;65482;50.240;14.302;2024-03-25T19:11:36;33.75;;;14.88;;
76593;SDS011;65482;50.240;14.302;2024-03-25T19:17:49;30.23;;;13.73;;
76593;SDS011;65482;50.240;14.302;2024-03-25T19:20:47;25.15;;;12.18;;
76593;SDS011;65482;50.240;14.302;2024-03-25T19:23:41;27.88;;;12.57;;
76593;SDS011;65482;50.240;14.302;2024-03-25T19:26:57;24.50;;;11.57;;
76593;SDS011;65482;50.240;14.302;2024-03-25T19:29:58;22.02;;;10.25;;
76593;SDS011;65482;50.240;14.302;2024-03-25T19:32:51;22.43;;;11.53;;
76593;SDS011;65482;50.240;14.302;2024-03-25T19:35:54;28.38;;;11.52;;
76593;SDS011;65482;50.240;14.302;2024-03-25T19:38:39;23.40;;;11.55;;
76593;SDS011;65482;50.240;14.302;2024-03-25T19:41:47;28.52;;;13.00;;
76593;SDS011;65482;50.240;14.302;2024-03-25T19:48:11;20.60;;;10.80;;
76593;SDS011;65482;50.240;14.302;2024-03-25T19:51:09;21.80;;;11.82;;
76593;SDS011;65482;50.240;14.302;2024-03-25T19:54:18;23.58;;;12.60;;
76593;SDS011;65482;50.240;14.302;2024-03-25T19:57:19;28.67;;;13.48;;
76593;SDS011;65482;50.240;14.302;2024-03-25T20:00:20;26.88;;;14.32;;
76593;SDS011;65482;50.240;14.302;2024-03-25T20:03:20;29.50;;;15.07;;
76593;SDS011;65482;50.240;14.302;2024-03-25T20:06:15;31.35;;;15.38;;
76593;SDS011;65482;50.240;14.302;2024-03-25T20:09:31;33.67;;;17.63;;
76593;SDS011;65482;50.240;14.302;2024-03-25T20:15:42;52.60;;;27.00;;
76593;SDS011;65482;50.240;14.302;2024-03-25T20:19:05;46.50;;;24.20;;
76593;SDS011;65482;50.240;14.302;2024-03-25T20:22:20;39.13;;;18.88;;
76593;SDS011;65482;50.240;14.302;2024-03-25T20:25:27;37.25;;;19.08;;
76593;SDS011;65482;50.240;14.302;2024-03-25T20:40:19;53.97;;;23.27;;
76593;SDS011;65482;50.240;14.302;2024-03-25T20:43:10;40.20;;;20.65;;
76593;SDS011;65482;50.240;14.302;2024-03-25T20:46:03;37.30;;;18.08;;
76593;SDS011;65482;50.240;14.302;2024-03-25T20:49:07;38.10;;;18.15;;
76593;SDS011;65482;50.240;14.302;2024-03-25T20:52:07;43.05;;;18.67;;
76593;SDS011;65482;50.240;14.302;2024-03-25T20:55:11;35.90;;;16.92;;
76593;SDS011;65482;50.240;14.302;2024-03-25T20:57:55;30.25;;;15.88;;
76593;SDS011;65482;50.240;14.302;2024-03-25T21:01:11;40.00;;;17.52;;
76593;SDS011;65482;50.240;14.302;2024-03-25T21:04:05;31.00;;;15.70;;
76593;SDS011;65482;50.240;14.302;2024-03-25T21:06:50;29.20;;;15.18;;
76593;SDS011;65482;50.240;14.302;2024-03-25T21:12:44;30.42;;;15.65;;
76593;SDS011;65482;50.240;14.302;2024-03-25T21:15:38;29.45;;;14.10;;
76593;SDS011;65482;50.240;14.302;2024-03-25T21:18:29;31.10;;;15.20;;
76593;SDS011;65482;50.240;14.302;2024-03-25T21:21:32;30.00;;;15.73;;
76593;SDS011;65482;50.240;14.302;2024-03-25T21:24:14;34.45;;;16.10;;
76593;SDS011;65482;50.240;14.302;2024-03-25T21:26:57;39.60;;;17.30;;
76593;SDS011;65482;50.240;14.302;2024-03-25T21:29:49;30.75;;;16.35;;
76593;SDS011;65482;50.240;14.302;2024-03-25T21:32:40;32.20;;;15.93;;
76593;SDS011;65482;50.240;14.302;2024-03-25T21:35:21;34.15;;;16.63;;